sensor_id;sensor_type;location;lat;lon;timestamp;P1;durP1;ratioP1;P2;durP2;ratioP2
76171;SDS011;64929;51.178;4.138;2023-04-10T00:01:07;8.70;;;5.55;;
76171;SDS011;64929;51.178;4.138;2023-04-10T00:03:33;10.45;;;5.68;;
76171;SDS011;64929;51.178;4.138;2023-04-10T00:05:58;8.55;;;5.28;;
76171;SDS011;64929;51.178;4.138;2023-04-10T00:08:24;7.88;;;5.72;;
76171;SDS011;64929;51.178;4.138;2023-04-10T00:10:50;7.60;;;5.10;;
76171;SDS011;64929;51.178;4.138;2023-04-10T00:13:18;8.32;;;5.72;;
76171;SDS011;64929;51.178;4.138;2023-04-10T00:15:44;9.45;;;5.50;;
76171;SDS011;64929;51.178;4.138;2023-04-10T00:18:10;9.95;;;5.60;;
76171;SDS011;64929;51.178;4.138;2023-04-10T00:20:36;7.30;;;5.50;;
76171;SDS011;64929;51.178;4.138;2023-04-10T00:23:02;9.40;;;5.60;;
76171;SDS011;64929;51.178;4.138;2023-04-10T00:25:27;8.13;;;5.43;;
76171;SDS011;64929;51.178;4.138;2023-04-10T00:27:53;7.22;;;5.40;;
76171;SDS011;64929;51.178;4.138;2023-04-10T00:30:19;11.38;;;5.78;;
76171;SDS011;64929;51.178;4.138;2023-04-10T00:32:45;7.35;;;4.90;;
76171;SDS011;64929;51.178;4.138;2023-04-10T00:35:11;8.10;;;5.10;;
76171;SDS011;64929;51.178;4.138;2023-04-10T00:37:37;10.68;;;5.68;;
76171;SDS011;64929;51.178;4.138;2023-04-10T00:40:03;7.53;;;5.22;;
76171;SDS011;64929;51.178;4.138;2023-04-10T00:42:30;9.93;;;5.60;;
76171;SDS011;64929;51.178;4.138;2023-04-10T00:44:56;8.27;;;5.38;;
76171;SDS011;64929;51.178;4.138;2023-04-10T00:47:22;7.90;;;5.00;;
76171;SDS011;64929;51.178;4.138;2023-04-10T00:49:48;10.15;;;5.30;;
76171;SDS011;64929;51.178;4.138;2023-04-10T00:52:14;6.70;;;4.70;;
76171;SDS011;64929;51.178;4.138;2023-04-10T00:54:40;6.70;;;4.95;;
76171;SDS011;64929;51.178;4.138;2023-04-10T00:57:05;9.00;;;5.03;;
76171;SDS011;64929;51.178;4.138;2023-04-10T00:59:32;8.55;;;5.75;;
76171;SDS011;64929;51.178;4.138;2023-04-10T01:01:58;7.32;;;4.90;;
76171;SDS011;64929;51.178;4.138;2023-04-10T01:04:24;7.78;;;5.07;;
76171;SDS011;64929;51.178;4.138;2023-04-10T01:07:00;6.50;;;4.53;;
76171;SDS011;64929;51.178;4.138;2023-04-10T01:09:36;8.77;;;4.70;;
76171;SDS011;64929;51.178;4.138;2023-04-10T01:15:46;7.80;;;4.38;;
76171;SDS011;64929;51.178;4.138;2023-04-10T01:20:50;8.52;;;4.97;;
76171;SDS011;64929;51.178;4.138;2023-04-10T01:26:10;8.48;;;4.97;;
76171;SDS011;64929;51.178;4.138;2023-04-10T01:31:03;8.27;;;5.05;;
76171;SDS011;64929;51.178;4.138;2023-04-10T01:33:37;7.93;;;5.10;;
76171;SDS011;64929;51.178;4.138;2023-04-10T01:36:07;7.28;;;4.97;;
76171;SDS011;64929;51.178;4.138;2023-04-10T01:38:33;7.18;;;4.60;;
76171;SDS011;64929;51.178;4.138;2023-04-10T01:41:00;8.40;;;4.85;;
76171;SDS011;64929;51.178;4.138;2023-04-10T01:43:27;7.50;;;4.60;;
76171;SDS011;64929;51.178;4.138;2023-04-10T01:45:55;7.15;;;4.63;;
76171;SDS011;64929;51.178;4.138;2023-04-10T01:48:22;8.40;;;4.93;;
76171;SDS011;64929;51.178;4.138;2023-04-10T01:50:48;8.18;;;5.03;;
76171;SDS011;64929;51.178;4.138;2023-04-10T01:53:15;9.40;;;5.32;;
76171;SDS011;64929;51.178;4.138;2023-04-10T01:55:42;10.73;;;4.53;;
76171;SDS011;64929;51.178;4.138;2023-04-10T01:58:08;7.28;;;4.38;;
76171;SDS011;64929;51.178;4.138;2023-04-10T02:00:40;9.70;;;4.40;;
76171;SDS011;64929;51.178;4.138;2023-04-10T02:03:07;7.03;;;4.60;;
76171;SDS011;64929;51.178;4.138;2023-04-10T02:08:17;5.60;;;3.80;;
76171;SDS011;64929;51.178;4.138;2023-04-10T02:10:55;7.05;;;4.30;;
76171;SDS011;64929;51.178;4.138;2023-04-10T02:13:28;6.72;;;3.40;;
76171;SDS011;64929;51.178;4.138;2023-04-10T02:18:24;8.23;;;3.90;;
76171;SDS011;64929;51.178;4.138;2023-04-10T02:20:51;5.57;;;3.90;;
76171;SDS011;64929;51.178;4.138;2023-04-10T02:23:18;5.35;;;3.70;;
76171;SDS011;64929;51.178;4.138;2023-04-10T02:25:45;6.60;;;4.35;;
76171;SDS011;64929;51.178;4.138;2023-04-10T02:28:10;7.72;;;4.10;;
76171;SDS011;64929;51.178;4.138;2023-04-10T02:30:36;6.55;;;3.80;;
76171;SDS011;64929;51.178;4.138;2023-04-10T02:33:03;9.30;;;4.20;;
76171;SDS011;64929;51.178;4.138;2023-04-10T02:35:29;5.05;;;3.42;;
76171;SDS011;64929;51.178;4.138;2023-04-10T02:37:55;8.07;;;4.35;;
76171;SDS011;64929;51.178;4.138;2023-04-10T02:40:21;7.13;;;3.78;;
76171;SDS011;64929;51.178;4.138;2023-04-10T02:42:47;7.13;;;3.90;;
76171;SDS011;64929;51.178;4.138;2023-04-10T02:45:12;6.55;;;3.67;;
76171;SDS011;64929;51.178;4.138;2023-04-10T02:47:38;5.70;;;3.60;;
76171;SDS011;64929;51.178;4.138;2023-04-10T02:50:04;4.85;;;3.58;;
76171;SDS011;64929;51.178;4.138;2023-04-10T02:52:30;5.80;;;3.50;;
76171;SDS011;64929;51.178;4.138;2023-04-10T02:54:55;5.10;;;3.22;;
76171;SDS011;64929;51.178;4.138;2023-04-10T02:57:21;5.53;;;3.60;;
76171;SDS011;64929;51.178;4.138;2023-04-10T02:59:50;6.57;;;3.55;;
76171;SDS011;64929;51.178;4.138;2023-04-10T03:02:16;4.95;;;3.08;;
76171;SDS011;64929;51.178;4.138;2023-04-10T03:04:41;4.55;;;3.20;;
76171;SDS011;64929;51.178;4.138;2023-04-10T03:07:07;5.53;;;3.85;;
76171;SDS011;64929;51.178;4.138;2023-04-10T03:09:33;5.97;;;3.95;;
76171;SDS011;64929;51.178;4.138;2023-04-10T03:11:59;6.28;;;3.85;;
76171;SDS011;64929;51.178;4.138;2023-04-10T03:14:26;7.75;;;4.20;;
76171;SDS011;64929;51.178;4.138;2023-04-10T03:16:52;7.68;;;3.72;;
76171;SDS011;64929;51.178;4.138;2023-04-10T03:19:17;7.15;;;4.03;;
76171;SDS011;64929;51.178;4.138;2023-04-10T03:21:44;6.35;;;3.58;;
76171;SDS011;64929;51.178;4.138;2023-04-10T03:24:13;6.80;;;3.90;;
76171;SDS011;64929;51.178;4.138;2023-04-10T03:26:39;6.15;;;3.63;;
76171;SDS011;64929;51.178;4.138;2023-04-10T03:29:05;5.15;;;3.45;;
76171;SDS011;64929;51.178;4.138;2023-04-10T03:31:31;5.47;;;3.42;;
76171;SDS011;64929;51.178;4.138;2023-04-10T03:33:57;5.80;;;3.40;;
76171;SDS011;64929;51.178;4.138;2023-04-10T03:36:23;3.90;;;3.17;;
76171;SDS011;64929;51.178;4.138;2023-04-10T03:38:48;5.53;;;3.22;;
76171;SDS011;64929;51.178;4.138;2023-04-10T03:41:15;5.22;;;3.63;;
76171;SDS011;64929;51.178;4.138;2023-04-10T03:43:41;4.28;;;3.40;;
76171;SDS011;64929;51.178;4.138;2023-04-10T03:46:06;3.85;;;3.45;;
76171;SDS011;64929;51.178;4.138;2023-04-10T03:48:32;5.07;;;3.13;;
76171;SDS011;64929;51.178;4.138;2023-04-10T03:50:58;4.53;;;3.38;;
76171;SDS011;64929;51.178;4.138;2023-04-10T03:53:23;4.35;;;3.13;;
76171;SDS011;64929;51.178;4.138;2023-04-10T03:55:49;4.75;;;3.30;;
76171;SDS011;64929;51.178;4.138;2023-04-10T03:58:16;4.40;;;2.90;;
76171;SDS011;64929;51.178;4.138;2023-04-10T04:00:43;5.40;;;3.72;;
76171;SDS011;64929;51.178;4.138;2023-04-10T04:03:09;4.47;;;3.05;;
76171;SDS011;64929;51.178;4.138;2023-04-10T04:05:34;4.75;;;3.03;;
76171;SDS011;64929;51.178;4.138;2023-04-10T04:08:00;5.82;;;3.50;;
76171;SDS011;64929;51.178;4.138;2023-04-10T04:10:28;4.20;;;3.22;;
76171;SDS011;64929;51.178;4.138;2023-04-10T04:12:54;5.55;;;3.30;;
76171;SDS011;64929;51.178;4.138;2023-04-10T04:15:20;4.53;;;3.00;;
76171;SDS011;64929;51.178;4.138;2023-04-10T04:17:47;4.95;;;3.03;;
76171;SDS011;64929;51.178;4.138;2023-04-10T04:20:13;6.38;;;3.58;;
76171;SDS011;64929;51.178;4.138;2023-04-10T04:22:39;6.28;;;3.60;;
76171;SDS011;64929;51.178;4.138;2023-04-10T04:25:05;6.22;;;3.47;;
76171;SDS011;64929;51.178;4.138;2023-04-10T04:27:34;6.40;;;3.45;;
76171;SDS011;64929;51.178;4.138;2023-04-10T04:30:00;6.05;;;3.33;;
76171;SDS011;64929;51.178;4.138;2023-04-10T04:32:26;4.72;;;3.30;;
76171;SDS011;64929;51.178;4.138;2023-04-10T04:34:52;6.00;;;3.40;;
76171;SDS011;64929;51.178;4.138;2023-04-10T04:37:18;6.40;;;3.70;;
76171;SDS011;64929;51.178;4.138;2023-04-10T04:39:43;6.07;;;3.85;;
76171;SDS011;64929;51.178;4.138;2023-04-10T04:42:09;5.00;;;3.17;;
76171;SDS011;64929;51.178;4.138;2023-04-10T04:44:34;6.68;;;3.33;;
76171;SDS011;64929;51.178;4.138;2023-04-10T04:47:00;6.40;;;3.95;;
76171;SDS011;64929;51.178;4.138;2023-04-10T04:49:26;5.40;;;3.40;;
76171;SDS011;64929;51.178;4.138;2023-04-10T04:51:52;5.72;;;3.35;;
76171;SDS011;64929;51.178;4.138;2023-04-10T04:54:17;5.47;;;3.22;;
76171;SDS011;64929;51.178;4.138;2023-04-10T04:56:43;9.93;;;3.78;;
76171;SDS011;64929;51.178;4.138;2023-04-10T04:59:09;6.63;;;3.95;;
76171;SDS011;64929;51.178;4.138;2023-04-10T05:01:34;5.72;;;3.00;;
76171;SDS011;64929;51.178;4.138;2023-04-10T05:04:00;7.05;;;3.20;;
76171;SDS011;64929;51.178;4.138;2023-04-10T05:06:26;9.15;;;3.40;;
76171;SDS011;64929;51.178;4.138;2023-04-10T05:08:51;8.38;;;3.15;;
76171;SDS011;64929;51.178;4.138;2023-04-10T05:11:17;6.70;;;3.20;;
76171;SDS011;64929;51.178;4.138;2023-04-10T05:13:43;6.88;;;3.30;;
76171;SDS011;64929;51.178;4.138;2023-04-10T05:16:08;4.50;;;3.35;;
76171;SDS011;64929;51.178;4.138;2023-04-10T05:18:34;5.57;;;3.45;;
76171;SDS011;64929;51.178;4.138;2023-04-10T05:21:00;4.65;;;3.00;;
76171;SDS011;64929;51.178;4.138;2023-04-10T05:23:26;5.72;;;3.53;;
76171;SDS011;64929;51.178;4.138;2023-04-10T05:25:51;4.82;;;3.40;;
76171;SDS011;64929;51.178;4.138;2023-04-10T05:28:17;4.50;;;3.28;;
76171;SDS011;64929;51.178;4.138;2023-04-10T05:30:43;4.55;;;3.20;;
76171;SDS011;64929;51.178;4.138;2023-04-10T05:33:09;5.05;;;3.55;;
76171;SDS011;64929;51.178;4.138;2023-04-10T05:35:34;4.53;;;3.30;;
76171;SDS011;64929;51.178;4.138;2023-04-10T05:38:00;5.80;;;3.40;;
76171;SDS011;64929;51.178;4.138;2023-04-10T05:40:26;5.45;;;3.63;;
76171;SDS011;64929;51.178;4.138;2023-04-10T05:42:52;5.20;;;3.05;;
76171;SDS011;64929;51.178;4.138;2023-04-10T05:45:18;6.10;;;3.85;;
76171;SDS011;64929;51.178;4.138;2023-04-10T05:47:44;5.85;;;3.42;;
76171;SDS011;64929;51.178;4.138;2023-04-10T05:50:09;5.13;;;3.35;;
76171;SDS011;64929;51.178;4.138;2023-04-10T05:52:35;3.95;;;2.90;;
76171;SDS011;64929;51.178;4.138;2023-04-10T05:55:01;5.63;;;3.40;;
76171;SDS011;64929;51.178;4.138;2023-04-10T05:57:27;5.35;;;3.05;;
76171;SDS011;64929;51.178;4.138;2023-04-10T05:59:54;4.18;;;2.80;;
76171;SDS011;64929;51.178;4.138;2023-04-10T06:02:20;5.82;;;2.97;;
76171;SDS011;64929;51.178;4.138;2023-04-10T06:04:45;5.43;;;2.70;;
76171;SDS011;64929;51.178;4.138;2023-04-10T06:07:11;5.30;;;3.65;;
76171;SDS011;64929;51.178;4.138;2023-04-10T06:09:37;5.07;;;3.28;;
76171;SDS011;64929;51.178;4.138;2023-04-10T06:12:03;4.70;;;3.17;;
76171;SDS011;64929;51.178;4.138;2023-04-10T06:14:28;6.38;;;3.28;;
76171;SDS011;64929;51.178;4.138;2023-04-10T06:16:54;5.38;;;3.20;;
76171;SDS011;64929;51.178;4.138;2023-04-10T06:19:20;4.47;;;2.88;;
76171;SDS011;64929;51.178;4.138;2023-04-10T06:21:45;4.63;;;3.00;;
76171;SDS011;64929;51.178;4.138;2023-04-10T06:24:11;5.70;;;3.00;;
76171;SDS011;64929;51.178;4.138;2023-04-10T06:26:38;3.88;;;3.00;;
76171;SDS011;64929;51.178;4.138;2023-04-10T06:29:03;4.50;;;3.25;;
76171;SDS011;64929;51.178;4.138;2023-04-10T06:31:31;4.38;;;3.28;;
76171;SDS011;64929;51.178;4.138;2023-04-10T06:33:58;5.45;;;3.60;;
76171;SDS011;64929;51.178;4.138;2023-04-10T06:36:24;8.38;;;3.15;;
76171;SDS011;64929;51.178;4.138;2023-04-10T06:38:51;6.45;;;3.65;;
76171;SDS011;64929;51.178;4.138;2023-04-10T06:41:16;6.50;;;3.50;;
76171;SDS011;64929;51.178;4.138;2023-04-10T06:43:43;5.38;;;3.47;;
76171;SDS011;64929;51.178;4.138;2023-04-10T06:46:10;5.65;;;2.95;;
76171;SDS011;64929;51.178;4.138;2023-04-10T06:48:36;7.22;;;3.33;;
76171;SDS011;64929;51.178;4.138;2023-04-10T06:51:01;5.72;;;3.25;;
76171;SDS011;64929;51.178;4.138;2023-04-10T06:53:28;6.35;;;3.33;;
76171;SDS011;64929;51.178;4.138;2023-04-10T06:55:53;6.47;;;3.25;;
76171;SDS011;64929;51.178;4.138;2023-04-10T06:58:19;5.10;;;3.55;;
76171;SDS011;64929;51.178;4.138;2023-04-10T07:00:45;6.00;;;3.38;;
76171;SDS011;64929;51.178;4.138;2023-04-10T07:03:11;4.22;;;3.17;;
76171;SDS011;64929;51.178;4.138;2023-04-10T07:05:36;5.20;;;3.33;;
76171;SDS011;64929;51.178;4.138;2023-04-10T07:08:02;4.78;;;3.03;;
76171;SDS011;64929;51.178;4.138;2023-04-10T07:10:28;5.63;;;3.38;;
76171;SDS011;64929;51.178;4.138;2023-04-10T07:12:53;4.32;;;2.88;;
76171;SDS011;64929;51.178;4.138;2023-04-10T07:15:21;4.90;;;2.92;;
76171;SDS011;64929;51.178;4.138;2023-04-10T07:17:47;5.80;;;3.50;;
76171;SDS011;64929;51.178;4.138;2023-04-10T07:20:12;4.90;;;3.10;;
76171;SDS011;64929;51.178;4.138;2023-04-10T07:22:38;6.13;;;3.00;;
76171;SDS011;64929;51.178;4.138;2023-04-10T07:25:04;6.85;;;3.28;;
76171;SDS011;64929;51.178;4.138;2023-04-10T07:27:31;26.88;;;8.32;;
76171;SDS011;64929;51.178;4.138;2023-04-10T07:29:57;4.55;;;3.38;;
76171;SDS011;64929;51.178;4.138;2023-04-10T07:32:22;7.20;;;4.47;;
76171;SDS011;64929;51.178;4.138;2023-04-10T07:34:48;6.03;;;3.17;;
76171;SDS011;64929;51.178;4.138;2023-04-10T07:37:14;5.07;;;3.58;;
76171;SDS011;64929;51.178;4.138;2023-04-10T07:39:41;5.35;;;3.38;;
76171;SDS011;64929;51.178;4.138;2023-04-10T07:42:07;7.72;;;4.15;;
76171;SDS011;64929;51.178;4.138;2023-04-10T07:44:35;5.18;;;3.30;;
76171;SDS011;64929;51.178;4.138;2023-04-10T07:47:01;5.15;;;3.67;;
76171;SDS011;64929;51.178;4.138;2023-04-10T07:49:27;5.45;;;3.00;;
76171;SDS011;64929;51.178;4.138;2023-04-10T07:51:53;3.88;;;3.08;;
76171;SDS011;64929;51.178;4.138;2023-04-10T07:54:19;6.35;;;3.30;;
76171;SDS011;64929;51.178;4.138;2023-04-10T07:56:45;5.00;;;2.85;;
76171;SDS011;64929;51.178;4.138;2023-04-10T07:59:10;4.55;;;3.08;;
76171;SDS011;64929;51.178;4.138;2023-04-10T08:01:36;5.93;;;3.38;;
76171;SDS011;64929;51.178;4.138;2023-04-10T08:04:02;4.40;;;2.95;;
76171;SDS011;64929;51.178;4.138;2023-04-10T08:06:28;4.82;;;3.03;;
76171;SDS011;64929;51.178;4.138;2023-04-10T08:08:55;4.15;;;3.28;;
76171;SDS011;64929;51.178;4.138;2023-04-10T08:13:59;5.60;;;2.70;;
76171;SDS011;64929;51.178;4.138;2023-04-10T08:16:30;4.40;;;3.00;;
76171;SDS011;64929;51.178;4.138;2023-04-10T08:19:00;5.18;;;3.30;;
76171;SDS011;64929;51.178;4.138;2023-04-10T08:21:27;4.88;;;2.90;;
76171;SDS011;64929;51.178;4.138;2023-04-10T08:23:54;4.55;;;3.00;;
76171;SDS011;64929;51.178;4.138;2023-04-10T08:26:21;3.45;;;2.67;;
76171;SDS011;64929;51.178;4.138;2023-04-10T08:28:48;3.83;;;2.55;;
76171;SDS011;64929;51.178;4.138;2023-04-10T08:31:18;5.80;;;3.05;;
76171;SDS011;64929;51.178;4.138;2023-04-10T08:33:46;3.88;;;2.65;;
76171;SDS011;64929;51.178;4.138;2023-04-10T08:36:12;3.42;;;2.90;;
76171;SDS011;64929;51.178;4.138;2023-04-10T08:38:42;3.97;;;2.63;;
76171;SDS011;64929;51.178;4.138;2023-04-10T08:41:14;3.92;;;2.65;;
76171;SDS011;64929;51.178;4.138;2023-04-10T08:43:42;5.15;;;3.10;;
76171;SDS011;64929;51.178;4.138;2023-04-10T08:46:09;4.50;;;3.03;;
76171;SDS011;64929;51.178;4.138;2023-04-10T08:48:42;3.85;;;2.97;;
76171;SDS011;64929;51.178;4.138;2023-04-10T08:51:27;4.38;;;2.67;;
76171;SDS011;64929;51.178;4.138;2023-04-10T08:54:04;4.68;;;2.65;;
76171;SDS011;64929;51.178;4.138;2023-04-10T08:56:32;4.55;;;3.17;;
76171;SDS011;64929;51.178;4.138;2023-04-10T08:59:02;4.57;;;2.88;;
76171;SDS011;64929;51.178;4.138;2023-04-10T09:01:28;3.92;;;2.67;;
76171;SDS011;64929;51.178;4.138;2023-04-10T09:03:54;5.15;;;3.90;;
76171;SDS011;64929;51.178;4.138;2023-04-10T09:06:20;4.47;;;2.92;;
76171;SDS011;64929;51.178;4.138;2023-04-10T09:08:46;4.80;;;3.40;;
76171;SDS011;64929;51.178;4.138;2023-04-10T09:11:11;4.22;;;3.03;;
76171;SDS011;64929;51.178;4.138;2023-04-10T09:13:41;4.45;;;2.80;;
76171;SDS011;64929;51.178;4.138;2023-04-10T09:16:12;4.40;;;2.95;;
76171;SDS011;64929;51.178;4.138;2023-04-10T09:18:41;4.38;;;2.80;;
76171;SDS011;64929;51.178;4.138;2023-04-10T09:21:17;3.00;;;2.70;;
76171;SDS011;64929;51.178;4.138;2023-04-10T09:23:44;4.22;;;2.83;;
76171;SDS011;64929;51.178;4.138;2023-04-10T09:26:24;4.05;;;2.67;;
76171;SDS011;64929;51.178;4.138;2023-04-10T09:28:58;4.43;;;3.15;;
76171;SDS011;64929;51.178;4.138;2023-04-10T09:31:28;4.05;;;2.65;;
76171;SDS011;64929;51.178;4.138;2023-04-10T09:36:43;3.92;;;2.45;;
76171;SDS011;64929;51.178;4.138;2023-04-10T09:39:19;3.90;;;2.85;;
76171;SDS011;64929;51.178;4.138;2023-04-10T09:41:54;5.28;;;2.78;;
76171;SDS011;64929;51.178;4.138;2023-04-10T09:44:30;4.38;;;3.00;;
76171;SDS011;64929;51.178;4.138;2023-04-10T09:46:57;3.95;;;3.03;;
76171;SDS011;64929;51.178;4.138;2023-04-10T09:49:24;3.67;;;2.55;;
76171;SDS011;64929;51.178;4.138;2023-04-10T09:51:49;3.70;;;2.53;;
76171;SDS011;64929;51.178;4.138;2023-04-10T09:54:16;3.83;;;3.10;;
76171;SDS011;64929;51.178;4.138;2023-04-10T09:56:41;3.40;;;2.60;;
76171;SDS011;64929;51.178;4.138;2023-04-10T09:59:10;4.05;;;3.00;;
76171;SDS011;64929;51.178;4.138;2023-04-10T10:01:38;4.80;;;2.63;;
76171;SDS011;64929;51.178;4.138;2023-04-10T10:04:05;13.65;;;3.47;;
76171;SDS011;64929;51.178;4.138;2023-04-10T10:06:32;4.45;;;3.00;;
76171;SDS011;64929;51.178;4.138;2023-04-10T10:09:03;3.05;;;2.42;;
76171;SDS011;64929;51.178;4.138;2023-04-10T10:11:31;4.38;;;2.75;;
76171;SDS011;64929;51.178;4.138;2023-04-10T10:13:58;3.17;;;2.63;;
76171;SDS011;64929;51.178;4.138;2023-04-10T10:19:01;3.88;;;2.72;;
76171;SDS011;64929;51.178;4.138;2023-04-10T10:21:29;5.18;;;2.63;;
76171;SDS011;64929;51.178;4.138;2023-04-10T10:23:58;4.00;;;3.05;;
76171;SDS011;64929;51.178;4.138;2023-04-10T10:26:24;3.92;;;2.53;;
76171;SDS011;64929;51.178;4.138;2023-04-10T10:28:51;5.95;;;3.20;;
76171;SDS011;64929;51.178;4.138;2023-04-10T10:31:27;5.95;;;2.78;;
76171;SDS011;64929;51.178;4.138;2023-04-10T10:33:56;3.97;;;2.85;;
76171;SDS011;64929;51.178;4.138;2023-04-10T10:36:30;3.88;;;2.85;;
76171;SDS011;64929;51.178;4.138;2023-04-10T10:41:59;4.85;;;3.17;;
76171;SDS011;64929;51.178;4.138;2023-04-10T10:47:21;5.22;;;3.00;;
76171;SDS011;64929;51.178;4.138;2023-04-10T10:57:49;3.33;;;2.60;;
76171;SDS011;64929;51.178;4.138;2023-04-10T11:00:19;3.55;;;2.78;;
76171;SDS011;64929;51.178;4.138;2023-04-10T11:05:56;4.47;;;3.00;;
76171;SDS011;64929;51.178;4.138;2023-04-10T11:11:06;4.13;;;3.00;;
76171;SDS011;64929;51.178;4.138;2023-04-10T11:19:04;4.00;;;2.90;;
76171;SDS011;64929;51.178;4.138;2023-04-10T11:21:31;4.30;;;3.20;;
76171;SDS011;64929;51.178;4.138;2023-04-10T11:34:21;4.85;;;2.85;;
76171;SDS011;64929;51.178;4.138;2023-04-10T11:36:48;5.45;;;3.00;;
76171;SDS011;64929;51.178;4.138;2023-04-10T11:39:15;3.92;;;2.50;;
76171;SDS011;64929;51.178;4.138;2023-04-10T11:41:51;4.68;;;2.97;;
76171;SDS011;64929;51.178;4.138;2023-04-10T11:46:51;6.75;;;2.75;;
76171;SDS011;64929;51.178;4.138;2023-04-10T11:49:19;3.92;;;2.63;;
76171;SDS011;64929;51.178;4.138;2023-04-10T11:51:47;4.85;;;2.13;;
76171;SDS011;64929;51.178;4.138;2023-04-10T11:54:15;3.67;;;2.63;;
76171;SDS011;64929;51.178;4.138;2023-04-10T11:59:26;3.38;;;2.47;;
76171;SDS011;64929;51.178;4.138;2023-04-10T12:02:05;3.67;;;2.60;;
76171;SDS011;64929;51.178;4.138;2023-04-10T12:04:33;3.92;;;2.67;;
76171;SDS011;64929;51.178;4.138;2023-04-10T12:06:59;4.13;;;2.45;;
76171;SDS011;64929;51.178;4.138;2023-04-10T12:09:25;3.83;;;2.35;;
76171;SDS011;64929;51.178;4.138;2023-04-10T12:14:17;4.38;;;2.88;;
76171;SDS011;64929;51.178;4.138;2023-04-10T12:16:47;4.18;;;2.83;;
76171;SDS011;64929;51.178;4.138;2023-04-10T12:19:16;2.92;;;2.38;;
76171;SDS011;64929;51.178;4.138;2023-04-10T12:21:43;4.10;;;2.55;;
76171;SDS011;64929;51.178;4.138;2023-04-10T12:24:10;4.05;;;2.63;;
76171;SDS011;64929;51.178;4.138;2023-04-10T12:26:36;6.38;;;3.03;;
76171;SDS011;64929;51.178;4.138;2023-04-10T12:29:02;2.75;;;2.50;;
76171;SDS011;64929;51.178;4.138;2023-04-10T12:31:31;3.13;;;2.53;;
76171;SDS011;64929;51.178;4.138;2023-04-10T12:33:59;5.80;;;3.05;;
76171;SDS011;64929;51.178;4.138;2023-04-10T12:36:26;4.53;;;2.65;;
76171;SDS011;64929;51.178;4.138;2023-04-10T12:38:53;4.32;;;2.55;;
76171;SDS011;64929;51.178;4.138;2023-04-10T12:41:24;5.13;;;2.90;;
76171;SDS011;64929;51.178;4.138;2023-04-10T12:43:51;4.78;;;2.90;;
76171;SDS011;64929;51.178;4.138;2023-04-10T12:46:25;3.55;;;3.00;;
76171;SDS011;64929;51.178;4.138;2023-04-10T12:48:51;3.28;;;2.83;;
76171;SDS011;64929;51.178;4.138;2023-04-10T12:51:17;4.13;;;2.78;;
76171;SDS011;64929;51.178;4.138;2023-04-10T12:53:43;5.50;;;3.08;;
76171;SDS011;64929;51.178;4.138;2023-04-10T12:56:10;4.75;;;3.20;;
76171;SDS011;64929;51.178;4.138;2023-04-10T12:58:37;6.78;;;3.60;;
76171;SDS011;64929;51.178;4.138;2023-04-10T13:01:04;3.33;;;2.72;;
76171;SDS011;64929;51.178;4.138;2023-04-10T13:03:35;4.97;;;2.78;;
76171;SDS011;64929;51.178;4.138;2023-04-10T13:06:02;4.25;;;3.10;;
76171;SDS011;64929;51.178;4.138;2023-04-10T13:08:31;3.83;;;3.10;;
76171;SDS011;64929;51.178;4.138;2023-04-10T13:10:58;3.33;;;2.70;;
76171;SDS011;64929;51.178;4.138;2023-04-10T13:13:30;3.60;;;2.88;;
76171;SDS011;64929;51.178;4.138;2023-04-10T13:15:57;4.97;;;3.08;;
76171;SDS011;64929;51.178;4.138;2023-04-10T13:18:26;4.53;;;3.00;;
76171;SDS011;64929;51.178;4.138;2023-04-10T13:20:51;4.28;;;2.85;;
76171;SDS011;64929;51.178;4.138;2023-04-10T13:23:17;4.55;;;2.67;;
76171;SDS011;64929;51.178;4.138;2023-04-10T13:25:43;3.17;;;2.88;;
76171;SDS011;64929;51.178;4.138;2023-04-10T13:28:08;3.97;;;3.10;;
76171;SDS011;64929;51.178;4.138;2023-04-10T13:30:35;4.70;;;3.15;;
76171;SDS011;64929;51.178;4.138;2023-04-10T13:33:06;5.28;;;3.30;;
76171;SDS011;64929;51.178;4.138;2023-04-10T13:35:32;3.25;;;2.67;;
76171;SDS011;64929;51.178;4.138;2023-04-10T13:37:58;4.22;;;2.35;;
76171;SDS011;64929;51.178;4.138;2023-04-10T13:40:25;4.15;;;2.45;;
76171;SDS011;64929;51.178;4.138;2023-04-10T13:42:51;4.25;;;3.20;;
76171;SDS011;64929;51.178;4.138;2023-04-10T13:45:16;4.82;;;3.00;;
76171;SDS011;64929;51.178;4.138;2023-04-10T13:47:42;5.57;;;3.35;;
76171;SDS011;64929;51.178;4.138;2023-04-10T13:50:10;4.63;;;3.42;;
76171;SDS011;64929;51.178;4.138;2023-04-10T13:52:36;6.22;;;3.95;;
76171;SDS011;64929;51.178;4.138;2023-04-10T13:55:02;4.05;;;3.30;;
76171;SDS011;64929;51.178;4.138;2023-04-10T13:57:28;4.78;;;3.60;;
76171;SDS011;64929;51.178;4.138;2023-04-10T13:59:54;3.88;;;3.08;;
76171;SDS011;64929;51.178;4.138;2023-04-10T14:02:20;4.85;;;3.00;;
76171;SDS011;64929;51.178;4.138;2023-04-10T14:04:45;7.13;;;3.22;;
76171;SDS011;64929;51.178;4.138;2023-04-10T14:07:11;3.95;;;3.05;;
76171;SDS011;64929;51.178;4.138;2023-04-10T14:09:37;3.65;;;2.78;;
76171;SDS011;64929;51.178;4.138;2023-04-10T14:12:03;5.47;;;3.20;;
76171;SDS011;64929;51.178;4.138;2023-04-10T14:14:29;4.38;;;2.80;;
76171;SDS011;64929;51.178;4.138;2023-04-10T14:16:55;4.90;;;3.10;;
76171;SDS011;64929;51.178;4.138;2023-04-10T14:19:21;4.70;;;2.90;;
76171;SDS011;64929;51.178;4.138;2023-04-10T14:21:47;3.45;;;2.80;;
76171;SDS011;64929;51.178;4.138;2023-04-10T14:24:12;3.72;;;3.03;;
76171;SDS011;64929;51.178;4.138;2023-04-10T14:26:38;3.00;;;2.58;;
76171;SDS011;64929;51.178;4.138;2023-04-10T14:29:03;4.00;;;2.60;;
76171;SDS011;64929;51.178;4.138;2023-04-10T14:31:31;2.83;;;2.17;;
76171;SDS011;64929;51.178;4.138;2023-04-10T14:33:57;2.33;;;2.13;;
76171;SDS011;64929;51.178;4.138;2023-04-10T14:36:23;2.50;;;2.13;;
76171;SDS011;64929;51.178;4.138;2023-04-10T14:38:48;2.35;;;2.00;;
76171;SDS011;64929;51.178;4.138;2023-04-10T14:41:14;3.60;;;2.30;;
76171;SDS011;64929;51.178;4.138;2023-04-10T14:43:40;3.58;;;2.40;;
76171;SDS011;64929;51.178;4.138;2023-04-10T14:46:06;3.35;;;2.40;;
76171;SDS011;64929;51.178;4.138;2023-04-10T14:48:31;2.95;;;2.35;;
76171;SDS011;64929;51.178;4.138;2023-04-10T14:51:03;5.00;;;3.70;;
76171;SDS011;64929;51.178;4.138;2023-04-10T14:53:36;5.07;;;3.30;;
76171;SDS011;64929;51.178;4.138;2023-04-10T14:56:08;5.47;;;3.25;;
76171;SDS011;64929;51.178;4.138;2023-04-10T14:58:37;4.43;;;3.20;;
76171;SDS011;64929;51.178;4.138;2023-04-10T15:01:02;5.50;;;3.38;;
76171;SDS011;64929;51.178;4.138;2023-04-10T15:03:31;4.63;;;3.73;;
76171;SDS011;64929;51.178;4.138;2023-04-10T15:05:58;5.88;;;3.70;;
76171;SDS011;64929;51.178;4.138;2023-04-10T15:08:24;5.28;;;4.07;;
76171;SDS011;64929;51.178;4.138;2023-04-10T15:10:50;6.40;;;3.95;;
76171;SDS011;64929;51.178;4.138;2023-04-10T15:13:17;6.07;;;4.05;;
76171;SDS011;64929;51.178;4.138;2023-04-10T15:15:44;9.73;;;4.40;;
76171;SDS011;64929;51.178;4.138;2023-04-10T15:18:12;5.93;;;4.53;;
76171;SDS011;64929;51.178;4.138;2023-04-10T15:20:38;8.88;;;4.65;;
76171;SDS011;64929;51.178;4.138;2023-04-10T15:23:03;6.55;;;4.40;;
76171;SDS011;64929;51.178;4.138;2023-04-10T15:25:31;7.57;;;4.68;;
76171;SDS011;64929;51.178;4.138;2023-04-10T15:27:59;8.80;;;4.90;;
76171;SDS011;64929;51.178;4.138;2023-04-10T15:30:25;5.13;;;4.15;;
76171;SDS011;64929;51.178;4.138;2023-04-10T15:32:51;9.63;;;4.88;;
76171;SDS011;64929;51.178;4.138;2023-04-10T15:35:16;7.55;;;4.72;;
76171;SDS011;64929;51.178;4.138;2023-04-10T15:37:42;5.10;;;4.47;;
76171;SDS011;64929;51.178;4.138;2023-04-10T15:40:08;9.30;;;5.60;;
76171;SDS011;64929;51.178;4.138;2023-04-10T15:42:34;7.72;;;5.40;;
76171;SDS011;64929;51.178;4.138;2023-04-10T15:45:00;7.90;;;4.95;;
76171;SDS011;64929;51.178;4.138;2023-04-10T15:47:27;9.52;;;4.97;;
76171;SDS011;64929;51.178;4.138;2023-04-10T15:49:52;9.80;;;4.88;;
76171;SDS011;64929;51.178;4.138;2023-04-10T15:52:20;6.28;;;4.15;;
76171;SDS011;64929;51.178;4.138;2023-04-10T15:54:46;7.95;;;4.55;;